Time;durP1;ratioP1;P1;durP2;ratioP2;P2;SDS_P1;SDS_P2;PMS_P1;PMS_P2;Temp;Humidity;BMP_temperature;BMP_pressure;BME280_temperature;BME280_humidity;BME280_pressure;Samples;Min_cycle;Max_cycle;Signal;HPM_P1;HPM_P2
2023/05/06 00:02:07;;;;;;;18.60;12.93;;;;;;;;;;5111535;28;20042;-73
2023/05/06 00:04:33;;;;;;;17.02;12.80;;;;;;;;;;5111927;28;20011;-73
2023/05/06 00:07:01;;;;;;;19.17;13.52;;;;;;;;;;5112047;28;20016;-73
2023/05/06 00:09:27;;;;;;;19.05;14.43;;;;;;;;;;5113762;28;20011;-73
2023/05/06 00:11:54;;;;;;;20.13;16.63;;;;;;;;;;5113474;28;20019;-73
2023/05/06 00:14:21;;;;;;;24.55;16.73;;;;;;;;;;5112353;28;20387;-75
2023/05/06 00:16:49;;;;;;;25.08;16.90;;;;;;;;;;5113621;28;20468;-73
2023/05/06 00:19:16;;;;;;;22.08;17.35;;;;;;;;;;5113463;28;20115;-73
2023/05/06 00:21:43;;;;;;;33.22;18.23;;;;;;;;;;5112994;28;20020;-73
2023/05/06 00:24:10;;;;;;;22.70;17.48;;;;;;;;;;5113515;28;20030;-73
2023/05/06 00:26:36;;;;;;;24.40;18.40;;;;;;;;;;5113331;28;20024;-74
2023/05/06 00:29:03;;;;;;;21.67;17.25;;;;;;;;;;5113464;28;20023;-73
2023/05/06 00:31:30;;;;;;;21.10;15.73;;;;;;;;;;5112244;28;20365;-73
2023/05/06 00:33:56;;;;;;;21.13;15.90;;;;;;;;;;5113218;28;20026;-73
2023/05/06 00:36:23;;;;;;;20.23;14.65;;;;;;;;;;5113412;28;20042;-73
2023/05/06 00:38:50;;;;;;;20.17;14.45;;;;;;;;;;5113300;28;20435;-73
2023/05/06 00:41:16;;;;;;;22.40;14.45;;;;;;;;;;5113165;28;20012;-74
2023/05/06 00:43:43;;;;;;;17.23;13.55;;;;;;;;;;5113361;28;20023;-73
2023/05/06 00:46:10;;;;;;;20.08;15.00;;;;;;;;;;5113386;28;20019;-72
2023/05/06 00:48:37;;;;;;;16.38;12.95;;;;;;;;;;5113178;28;20026;-72
2023/05/06 00:51:04;;;;;;;15.88;11.68;;;;;;;;;;5113213;28;20030;-72
2023/05/06 00:53:31;;;;;;;18.73;12.05;;;;;;;;;;5113254;28;20031;-72
2023/05/06 00:55:58;;;;;;;14.85;10.75;;;;;;;;;;5113106;28;20024;-72
2023/05/06 00:58:25;;;;;;;16.20;12.05;;;;;;;;;;5113207;28;20020;-72
2023/05/06 01:00:52;;;;;;;15.98;11.95;;;;;;;;;;5113021;28;20043;-73
2023/05/06 01:03:18;;;;;;;18.50;12.05;;;;;;;;;;5113001;28;20019;-73
2023/05/06 01:05:51;;;;;;;16.33;12.43;;;;;;;;;;5113133;28;20098;-74
2023/05/06 01:08:32;;;;;;;14.25;10.57;;;;;;;;;;5113213;28;20019;-72
2023/05/06 01:11:00;;;;;;;15.55;11.80;;;;;;;;;;5113015;28;20088;-71
2023/05/06 01:13:47;;;;;;;17.27;11.32;;;;;;;;;;5113129;28;20023;-75
2023/05/06 01:16:15;;;;;;;16.13;11.13;;;;;;;;;;5111339;28;20436;-74
2023/05/06 01:18:42;;;;;;;17.20;11.38;;;;;;;;;;5113126;28;20028;-74
2023/05/06 01:21:09;;;;;;;13.95;11.77;;;;;;;;;;5113030;28;20016;-74
2023/05/06 01:23:56;;;;;;;17.35;11.52;;;;;;;;;;5113039;28;20020;-75
2023/05/06 01:26:25;;;;;;;16.92;12.32;;;;;;;;;;5111534;28;20036;-74
2023/05/06 01:28:51;;;;;;;19.88;12.55;;;;;;;;;;5113173;28;20023;-74
2023/05/06 01:31:24;;;;;;;21.80;15.02;;;;;;;;;;5112975;28;20103;-73
2023/05/06 01:33:52;;;;;;;16.02;13.15;;;;;;;;;;5114626;28;20110;-73
2023/05/06 01:36:29;;;;;;;21.25;13.73;;;;;;;;;;5116485;28;20031;-73
2023/05/06 01:38:57;;;;;;;18.52;14.25;;;;;;;;;;5116544;28;20023;-73
2023/05/06 01:41:25;;;;;;;16.30;12.88;;;;;;;;;;5095984;28;20029;-72
2023/05/06 01:43:53;;;;;;;16.27;12.60;;;;;;;;;;5097348;28;20487;-72
2023/05/06 01:46:20;;;;;;;15.05;12.30;;;;;;;;;;5116231;28;20376;-73
2023/05/06 01:48:49;;;;;;;19.90;14.85;;;;;;;;;;5116286;28;20102;-73
2023/05/06 01:51:16;;;;;;;18.42;14.60;;;;;;;;;;5116449;28;20076;-72
2023/05/06 01:53:42;;;;;;;20.00;15.65;;;;;;;;;;5116392;28;20376;-72
2023/05/06 01:56:09;;;;;;;20.10;16.85;;;;;;;;;;5116279;28;20054;-72
2023/05/06 01:58:36;;;;;;;21.60;16.45;;;;;;;;;;5116307;28;20016;-73
2023/05/06 02:01:02;;;;;;;25.05;17.98;;;;;;;;;;5116374;28;20023;-72
2023/05/06 02:03:29;;;;;;;29.13;20.17;;;;;;;;;;5116143;27;20027;-72
2023/05/06 02:05:56;;;;;;;28.83;22.13;;;;;;;;;;5116205;28;20464;-72
2023/05/06 02:08:22;;;;;;;24.33;19.00;;;;;;;;;;5116185;28;20468;-72
2023/05/06 02:10:49;;;;;;;25.13;19.08;;;;;;;;;;5115971;28;20427;-72
2023/05/06 02:13:18;;;;;;;22.77;18.55;;;;;;;;;;5116133;28;20028;-72
2023/05/06 02:15:45;;;;;;;23.40;17.40;;;;;;;;;;5116096;28;20031;-74
2023/05/06 02:18:11;;;;;;;29.13;18.52;;;;;;;;;;5115859;28;20468;-73
2023/05/06 02:20:38;;;;;;;25.20;19.27;;;;;;;;;;5116062;28;20019;-73
2023/05/06 02:23:05;;;;;;;21.75;18.65;;;;;;;;;;5115928;28;20383;-72
2023/05/06 02:25:31;;;;;;;23.73;18.58;;;;;;;;;;5115708;28;20027;-73
2023/05/06 02:27:58;;;;;;;22.65;17.73;;;;;;;;;;5115854;27;20028;-73
2023/05/06 02:30:25;;;;;;;25.33;17.83;;;;;;;;;;5115825;28;20027;-73
2023/05/06 02:32:51;;;;;;;22.35;17.73;;;;;;;;;;5115765;28;20425;-78
2023/05/06 02:35:18;;;;;;;21.10;16.95;;;;;;;;;;5115766;28;20487;-76
2023/05/06 02:37:44;;;;;;;21.05;17.05;;;;;;;;;;5115595;28;20020;-76
2023/05/06 02:40:11;;;;;;;23.40;16.77;;;;;;;;;;5115415;27;20497;-76
2023/05/06 02:42:38;;;;;;;23.50;19.67;;;;;;;;;;5115638;28;20032;-76
2023/05/06 02:45:05;;;;;;;27.33;21.05;;;;;;;;;;5114971;27;20026;-76
2023/05/06 02:47:31;;;;;;;31.17;22.27;;;;;;;;;;5115235;28;20118;-76
2023/05/06 02:49:58;;;;;;;43.83;32.00;;;;;;;;;;5115408;28;20028;-75
2023/05/06 02:52:25;;;;;;;31.20;24.02;;;;;;;;;;5115495;28;20089;-75
2023/05/06 02:54:51;;;;;;;40.97;26.75;;;;;;;;;;5115175;27;20015;-71
2023/05/06 02:57:18;;;;;;;34.17;23.63;;;;;;;;;;5115360;28;20027;-73
2023/05/06 02:59:45;;;;;;;41.17;25.50;;;;;;;;;;5114895;28;20054;-72
2023/05/06 03:02:11;;;;;;;42.63;26.42;;;;;;;;;;5115167;28;20019;-73
2023/05/06 03:04:38;;;;;;;45.95;28.02;;;;;;;;;;5115093;28;20016;-73
2023/05/06 03:07:04;;;;;;;44.67;28.38;;;;;;;;;;5115060;28;20099;-72
2023/05/06 03:09:31;;;;;;;39.17;28.23;;;;;;;;;;5115033;28;20027;-72
2023/05/06 03:11:58;;;;;;;42.08;27.48;;;;;;;;;;5114770;28;20027;-72
2023/05/06 03:14:24;;;;;;;45.15;30.23;;;;;;;;;;5114507;28;20422;-72
2023/05/06 03:16:51;;;;;;;62.65;36.00;;;;;;;;;;5112836;28;20020;-72
2023/05/06 03:19:18;;;;;;;68.18;36.95;;;;;;;;;;5112958;28;20118;-72
2023/05/06 03:21:44;;;;;;;57.22;37.53;;;;;;;;;;5112811;28;20490;-72
2023/05/06 03:24:11;;;;;;;58.78;37.85;;;;;;;;;;5112787;28;20111;-73
2023/05/06 03:26:38;;;;;;;61.40;36.67;;;;;;;;;;5112581;28;20027;-72
2023/05/06 03:29:05;;;;;;;51.17;35.83;;;;;;;;;;5113250;28;20024;-72
2023/05/06 03:31:31;;;;;;;63.47;36.25;;;;;;;;;;5114420;28;20024;-73
2023/05/06 03:33:58;;;;;;;54.53;36.13;;;;;;;;;;5114325;28;20092;-72
2023/05/06 03:36:26;;;;;;;62.70;41.42;;;;;;;;;;5114473;28;20024;-70
2023/05/06 03:38:54;;;;;;;62.25;40.70;;;;;;;;;;5114416;28;20067;-76
2023/05/06 03:41:20;;;;;;;60.67;40.75;;;;;;;;;;5114255;28;20039;-75
2023/05/06 03:43:47;;;;;;;66.57;41.40;;;;;;;;;;5114403;28;20023;-76
2023/05/06 03:46:13;;;;;;;65.30;43.25;;;;;;;;;;5114381;28;20035;-76
2023/05/06 03:48:40;;;;;;;65.57;42.42;;;;;;;;;;5114122;28;20031;-75
2023/05/06 03:51:07;;;;;;;64.18;43.47;;;;;;;;;;5114269;28;20038;-74
2023/05/06 03:53:33;;;;;;;62.70;43.28;;;;;;;;;;5114177;28;20026;-72
2023/05/06 03:56:00;;;;;;;78.22;47.05;;;;;;;;;;5113717;28;20135;-72
2023/05/06 03:58:27;;;;;;;72.22;46.60;;;;;;;;;;5113731;28;20043;-72
2023/05/06 04:00:54;;;;;;;75.90;47.67;;;;;;;;;;5113931;28;20039;-72
2023/05/06 04:03:20;;;;;;;71.57;47.40;;;;;;;;;;5113894;28;20035;-72
2023/05/06 04:05:49;;;;;;;81.30;49.58;;;;;;;;;;5114059;28;20015;-72
2023/05/06 04:08:16;;;;;;;72.95;47.88;;;;;;;;;;5114037;28;20048;-79
2023/05/06 04:10:42;;;;;;;76.78;49.90;;;;;;;;;;5112409;28;20030;-74
2023/05/06 04:13:09;;;;;;;73.57;49.40;;;;;;;;;;5113944;28;20019;-74
2023/05/06 04:15:36;;;;;;;77.97;53.47;;;;;;;;;;5113936;28;20030;-72
2023/05/06 04:18:03;;;;;;;76.82;51.15;;;;;;;;;;5113651;28;20467;-72
2023/05/06 04:20:29;;;;;;;79.72;51.40;;;;;;;;;;5113905;28;20020;-73
2023/05/06 04:22:56;;;;;;;77.07;53.03;;;;;;;;;;5113815;28;20428;-73
2023/05/06 04:25:23;;;;;;;71.75;49.85;;;;;;;;;;5113595;28;20028;-74
2023/05/06 04:27:49;;;;;;;72.40;50.58;;;;;;;;;;5113786;28;20054;-73
2023/05/06 04:30:16;;;;;;;73.68;52.15;;;;;;;;;;5113772;28;20028;-73
2023/05/06 04:32:42;;;;;;;67.82;47.88;;;;;;;;;;5113534;28;20027;-73
2023/05/06 04:35:09;;;;;;;61.80;45.35;;;;;;;;;;5113782;28;20490;-73
2023/05/06 04:37:36;;;;;;;70.50;46.60;;;;;;;;;;5113649;28;20027;-73
2023/05/06 04:40:05;;;;;;;58.72;42.10;;;;;;;;;;5113580;28;20016;-73
2023/05/06 04:42:32;;;;;;;51.55;39.75;;;;;;;;;;5113720;28;20380;-73
2023/05/06 04:44:59;;;;;;;52.38;38.47;;;;;;;;;;5113589;28;20020;-74
2023/05/06 04:47:26;;;;;;;57.78;41.85;;;;;;;;;;5113577;28;20090;-74
2023/05/06 04:49:52;;;;;;;64.72;45.15;;;;;;;;;;5113746;28;20517;-74
2023/05/06 04:52:19;;;;;;;58.00;41.13;;;;;;;;;;5113487;28;20102;-73
2023/05/06 04:54:46;;;;;;;55.90;39.22;;;;;;;;;;5113419;28;20472;-73
2023/05/06 04:57:12;;;;;;;62.35;43.92;;;;;;;;;;5113217;28;20024;-73
2023/05/06 04:59:39;;;;;;;65.65;46.55;;;;;;;;;;5113333;28;20042;-73
2023/05/06 05:02:05;;;;;;;62.65;45.05;;;;;;;;;;5113307;28;20098;-73
2023/05/06 05:04:32;;;;;;;56.83;42.40;;;;;;;;;;5113124;28;20052;-73
2023/05/06 05:06:59;;;;;;;54.90;38.25;;;;;;;;;;5113310;28;20567;-73
2023/05/06 05:09:25;;;;;;;45.47;32.33;;;;;;;;;;5116345;28;20024;-73
2023/05/06 05:11:52;;;;;;;44.30;31.08;;;;;;;;;;5117104;28;20501;-73
2023/05/06 05:14:19;;;;;;;36.58;27.08;;;;;;;;;;5117233;28;20032;-73
2023/05/06 05:16:45;;;;;;;34.65;24.98;;;;;;;;;;5117251;28;20103;-73
2023/05/06 05:19:12;;;;;;;61.20;42.13;;;;;;;;;;5117016;28;20020;-73
2023/05/06 05:21:38;;;;;;;60.65;45.83;;;;;;;;;;5117229;28;20027;-71
2023/05/06 05:24:05;;;;;;;39.35;25.80;;;;;;;;;;5117094;28;20023;-71
2023/05/06 05:26:32;;;;;;;32.30;23.83;;;;;;;;;;5116927;28;20056;-71
2023/05/06 05:28:58;;;;;;;239.70;158.55;;;;;;;;;;5117014;28;20019;-75
2023/05/06 05:31:25;;;;;;;156.02;103.93;;;;;;;;;;5116892;28;20046;-71
2023/05/06 05:33:51;;;;;;;72.35;50.70;;;;;;;;;;5116515;28;20020;-72
2023/05/06 05:36:18;;;;;;;119.85;68.88;;;;;;;;;;5116885;28;20376;-71
2023/05/06 05:38:46;;;;;;;253.20;142.75;;;;;;;;;;5116605;28;20382;-72
2023/05/06 05:41:13;;;;;;;541.08;318.13;;;;;;;;;;5116573;28;20464;-72
2023/05/06 05:43:39;;;;;;;604.13;371.30;;;;;;;;;;5116689;28;20483;-71
2023/05/06 05:46:06;;;;;;;171.35;99.97;;;;;;;;;;5116716;28;20031;-71
2023/05/06 05:48:33;;;;;;;248.55;169.07;;;;;;;;;;5116456;28;20027;-72
2023/05/06 05:51:02;;;;;;;201.57;130.93;;;;;;;;;;5116453;28;20106;-71
2023/05/06 05:53:29;;;;;;;71.78;47.92;;;;;;;;;;5116531;28;20102;-71
2023/05/06 05:55:56;;;;;;;46.33;31.30;;;;;;;;;;5116353;28;20011;-71
2023/05/06 05:58:22;;;;;;;39.90;28.88;;;;;;;;;;5116519;28;20027;-71
2023/05/06 06:00:49;;;;;;;35.25;23.42;;;;;;;;;;5116188;28;20052;-72
2023/05/06 06:03:17;;;;;;;96.70;58.28;;;;;;;;;;5116440;28;20034;-73
2023/05/06 06:05:44;;;;;;;39.15;29.95;;;;;;;;;;5116522;28;20031;-73
2023/05/06 06:08:10;;;;;;;38.03;27.80;;;;;;;;;;5116408;28;20019;-73
2023/05/06 06:10:37;;;;;;;42.75;29.80;;;;;;;;;;5116160;28;20027;-72
2023/05/06 06:13:04;;;;;;;37.28;28.95;;;;;;;;;;5116134;28;20031;-71
2023/05/06 06:15:31;;;;;;;227.07;141.43;;;;;;;;;;5116186;28;20588;-71
2023/05/06 06:17:58;;;;;;;190.55;123.80;;;;;;;;;;5116031;28;20020;-71
2023/05/06 06:20:25;;;;;;;92.13;66.43;;;;;;;;;;5115192;28;20011;-71
2023/05/06 06:22:52;;;;;;;239.05;169.43;;;;;;;;;;5115943;28;20039;-69
2023/05/06 06:25:18;;;;;;;92.50;70.18;;;;;;;;;;5116176;28;20031;-70
2023/05/06 06:27:45;;;;;;;62.78;45.97;;;;;;;;;;5115781;28;20042;-70
2023/05/06 06:30:12;;;;;;;38.35;30.40;;;;;;;;;;5116298;28;20527;-70
2023/05/06 06:32:47;;;;;;;63.28;46.38;;;;;;;;;;5116148;28;20550;-66
2023/05/06 06:35:13;;;;;;;52.83;37.80;;;;;;;;;;5116289;28;20047;-67
2023/05/06 06:37:40;;;;;;;33.72;27.73;;;;;;;;;;5116378;28;20385;-67
2023/05/06 06:40:07;;;;;;;79.25;60.70;;;;;;;;;;5116414;28;20015;-69
2023/05/06 06:42:34;;;;;;;51.47;38.13;;;;;;;;;;5116365;28;20020;-67
2023/05/06 06:45:01;;;;;;;28.42;23.27;;;;;;;;;;5116404;28;20532;-67
2023/05/06 06:47:28;;;;;;;80.18;63.78;;;;;;;;;;5116142;28;20049;-67
2023/05/06 06:49:54;;;;;;;128.30;101.50;;;;;;;;;;5116224;28;20028;-67
2023/05/06 06:52:21;;;;;;;76.05;57.78;;;;;;;;;;5115944;28;20089;-67
2023/05/06 06:54:48;;;;;;;44.13;33.30;;;;;;;;;;5115838;28;20027;-67
2023/05/06 06:57:14;;;;;;;49.47;35.38;;;;;;;;;;5116243;28;20527;-67
2023/05/06 06:59:41;;;;;;;213.45;157.38;;;;;;;;;;5027809;22;20067;-66
2023/05/06 07:02:07;;;;;;;48.08;35.92;;;;;;;;;;4973548;28;20030;-67
2023/05/06 07:04:34;;;;;;;52.22;36.38;;;;;;;;;;4973248;28;20467;-69
2023/05/06 07:07:01;;;;;;;117.85;83.32;;;;;;;;;;4972973;28;20031;-69
2023/05/06 07:09:27;;;;;;;75.35;54.33;;;;;;;;;;4972958;28;20084;-69
2023/05/06 07:11:54;;;;;;;40.63;28.35;;;;;;;;;;4972718;28;20064;-71
2023/05/06 07:14:21;;;;;;;36.70;23.48;;;;;;;;;;4972865;28;20031;-69
2023/05/06 07:16:47;;;;;;;44.10;31.10;;;;;;;;;;4972746;28;20531;-69
2023/05/06 07:19:14;;;;;;;42.08;30.90;;;;;;;;;;4972631;28;20054;-69
2023/05/06 07:21:40;;;;;;;40.67;27.92;;;;;;;;;;4972760;28;20429;-69
2023/05/06 07:24:07;;;;;;;37.58;29.85;;;;;;;;;;4972623;28;20026;-69
2023/05/06 07:26:35;;;;;;;104.30;82.25;;;;;;;;;;4972448;28;20101;-70
2023/05/06 07:29:03;;;;;;;87.07;61.08;;;;;;;;;;4972637;28;20036;-69
2023/05/06 07:31:32;;;;;;;45.22;36.55;;;;;;;;;;4972486;28;20058;-69
2023/05/06 07:33:59;;;;;;;30.83;20.80;;;;;;;;;;4972242;28;20030;-69
2023/05/06 07:36:26;;;;;;;23.70;19.88;;;;;;;;;;4972541;28;20073;-69
2023/05/06 07:38:52;;;;;;;35.10;28.30;;;;;;;;;;4972527;28;20089;-69
2023/05/06 07:41:19;;;;;;;38.95;29.17;;;;;;;;;;4972390;28;20068;-70
2023/05/06 07:43:46;;;;;;;32.15;25.08;;;;;;;;;;4972410;28;20023;-70
2023/05/06 07:46:13;;;;;;;91.88;75.65;;;;;;;;;;4972622;28;20176;-69
2023/05/06 07:48:39;;;;;;;39.50;29.50;;;;;;;;;;4972158;28;20472;-68
2023/05/06 07:51:06;;;;;;;21.85;17.90;;;;;;;;;;4972210;28;20038;-70
2023/05/06 07:53:33;;;;;;;29.30;25.13;;;;;;;;;;4972065;28;20369;-70
2023/05/06 07:56:01;;;;;;;18.15;14.95;;;;;;;;;;4971854;28;20073;-71
2023/05/06 07:58:30;;;;;;;28.60;24.63;;;;;;;;;;4971895;28;20046;-70
2023/05/06 08:00:56;;;;;;;68.75;55.80;;;;;;;;;;4971900;28;20015;-70
2023/05/06 08:03:23;;;;;;;430.35;351.17;;;;;;;;;;4971811;28;20391;-72
2023/05/06 08:05:50;;;;;;;156.15;124.60;;;;;;;;;;4970360;28;20031;-71
2023/05/06 08:08:18;;;;;;;36.30;29.08;;;;;;;;;;4971547;28;20096;-74
2023/05/06 08:10:44;;;;;;;28.55;19.23;;;;;;;;;;5037586;28;20031;-74
2023/05/06 08:13:11;;;;;;;23.15;16.67;;;;;;;;;;4970969;28;20051;-74
2023/05/06 08:15:38;;;;;;;23.88;17.55;;;;;;;;;;4970932;28;20035;-74
2023/05/06 08:18:05;;;;;;;26.08;22.38;;;;;;;;;;4970753;28;20072;-75
2023/05/06 08:20:31;;;;;;;23.33;19.40;;;;;;;;;;5037534;28;20019;-74
2023/05/06 08:22:59;;;;;;;19.33;15.88;;;;;;;;;;4970801;28;20033;-75
2023/05/06 08:25:26;;;;;;;21.33;17.65;;;;;;;;;;4970709;28;20027;-74
2023/05/06 08:27:53;;;;;;;17.52;15.02;;;;;;;;;;4970783;28;20030;-74
2023/05/06 08:30:19;;;;;;;66.68;55.92;;;;;;;;;;4970788;28;20054;-76
2023/05/06 08:32:46;;;;;;;59.72;49.97;;;;;;;;;;4970523;28;20392;-73
2023/05/06 08:35:13;;;;;;;84.88;68.35;;;;;;;;;;4990563;22;20062;-74
2023/05/06 08:37:40;;;;;;;48.65;35.95;;;;;;;;;;4970611;28;20129;-74
2023/05/06 08:40:18;;;;;;;159.63;130.45;;;;;;;;;;4970648;28;20027;-70
2023/05/06 08:42:47;;;;;;;81.97;68.63;;;;;;;;;;4970734;28;20475;-69
2023/05/06 08:45:14;;;;;;;59.63;51.92;;;;;;;;;;4974032;28;20057;-70
2023/05/06 08:47:41;;;;;;;20.60;16.70;;;;;;;;;;4974156;28;20037;-72
2023/05/06 08:50:09;;;;;;;30.10;22.60;;;;;;;;;;4974267;28;20101;-72
2023/05/06 08:52:36;;;;;;;24.92;19.33;;;;;;;;;;4973942;28;20026;-70
2023/05/06 08:55:04;;;;;;;26.95;20.17;;;;;;;;;;4973782;28;20031;-71
2023/05/06 08:57:31;;;;;;;26.20;20.38;;;;;;;;;;4973985;28;20046;-72
2023/05/06 08:59:57;;;;;;;30.15;25.35;;;;;;;;;;4973557;28;20022;-72
2023/05/06 09:02:24;;;;;;;33.70;28.42;;;;;;;;;;4973795;28;20019;-71
2023/05/06 09:04:52;;;;;;;23.45;18.30;;;;;;;;;;4987383;28;20035;-70
2023/05/06 09:07:21;;;;;;;30.45;23.40;;;;;;;;;;4992505;28;20406;-71
2023/05/06 09:09:47;;;;;;;23.50;16.20;;;;;;;;;;4992344;28;20026;-71
2023/05/06 09:12:14;;;;;;;53.78;45.53;;;;;;;;;;4992535;28;20048;-72
2023/05/06 09:14:42;;;;;;;30.45;21.08;;;;;;;;;;4992379;28;20510;-72
2023/05/06 09:17:30;;;;;;;38.05;30.98;;;;;;;;;;4992312;28;20028;-73
2023/05/06 09:19:57;;;;;;;29.50;22.45;;;;;;;;;;4992303;28;20113;-71
2023/05/06 09:22:26;;;;;;;23.30;17.10;;;;;;;;;;4992132;28;20067;-72
2023/05/06 09:24:55;;;;;;;34.63;26.65;;;;;;;;;;4992277;28;20475;-72
2023/05/06 09:27:24;;;;;;;28.27;22.88;;;;;;;;;;4992232;28;20058;-72
2023/05/06 09:30:00;;;;;;;29.58;22.08;;;;;;;;;;4992535;28;20387;-72
2023/05/06 09:32:28;;;;;;;37.97;29.83;;;;;;;;;;4992019;28;20032;-72
2023/05/06 09:34:55;;;;;;;40.97;33.08;;;;;;;;;;4991821;28;20046;-72
2023/05/06 09:37:22;;;;;;;39.67;31.42;;;;;;;;;;4986024;28;20033;-72
2023/05/06 09:39:48;;;;;;;35.42;28.63;;;;;;;;;;4973252;28;20399;-72
2023/05/06 09:42:16;;;;;;;29.58;20.80;;;;;;;;;;4973115;28;20506;-70
2023/05/06 09:44:42;;;;;;;28.90;21.30;;;;;;;;;;4973190;28;20042;-73
2023/05/06 09:47:09;;;;;;;52.50;26.63;;;;;;;;;;4973243;28;20109;-72
2023/05/06 09:49:36;;;;;;;28.92;20.40;;;;;;;;;;4973087;28;20027;-72
2023/05/06 09:52:02;;;;;;;37.92;26.13;;;;;;;;;;4973167;28;20387;-72
2023/05/06 09:54:29;;;;;;;58.53;39.10;;;;;;;;;;4971822;28;20105;-73
2023/05/06 09:56:56;;;;;;;40.25;27.92;;;;;;;;;;4972741;28;20023;-72
2023/05/06 09:59:24;;;;;;;24.27;18.10;;;;;;;;;;4972975;28;20035;-71
2023/05/06 10:01:51;;;;;;;26.60;19.08;;;;;;;;;;4972967;28;20040;-69
2023/05/06 10:04:18;;;;;;;29.05;23.52;;;;;;;;;;4972789;28;20037;-72
2023/05/06 10:06:46;;;;;;;23.13;20.20;;;;;;;;;;4973022;28;20027;-71
2023/05/06 10:09:13;;;;;;;25.10;17.80;;;;;;;;;;4972862;28;20507;-71
2023/05/06 10:11:40;;;;;;;24.27;18.13;;;;;;;;;;4972718;28;20035;-71
2023/05/06 10:14:06;;;;;;;24.15;17.15;;;;;;;;;;4972647;28;20038;-71
2023/05/06 10:16:36;;;;;;;24.00;18.17;;;;;;;;;;4972609;28;20027;-71
2023/05/06 10:19:03;;;;;;;25.48;18.25;;;;;;;;;;4972449;28;20062;-71
2023/05/06 10:21:33;;;;;;;37.30;23.42;;;;;;;;;;4972800;28;20023;-70
2023/05/06 10:24:06;;;;;;;27.17;20.17;;;;;;;;;;4972640;28;20074;-71
2023/05/06 10:26:35;;;;;;;31.15;21.15;;;;;;;;;;4972486;28;20113;-74
2023/05/06 10:29:03;;;;;;;33.88;21.58;;;;;;;;;;4972560;28;20035;-70
2023/05/06 10:31:30;;;;;;;37.25;22.55;;;;;;;;;;4972436;28;20041;-70
2023/05/06 10:33:58;;;;;;;38.53;24.40;;;;;;;;;;4972413;28;20050;-70
2023/05/06 10:36:26;;;;;;;39.85;23.60;;;;;;;;;;4972530;28;20043;-72
2023/05/06 10:38:56;;;;;;;44.38;29.02;;;;;;;;;;4972317;28;20318;-74
2023/05/06 10:41:26;;;;;;;49.67;27.80;;;;;;;;;;4972355;28;20056;-73
2023/05/06 10:43:55;;;;;;;39.00;26.25;;;;;;;;;;4972336;28;20031;-72
2023/05/06 10:46:25;;;;;;;42.80;27.00;;;;;;;;;;4972172;28;20438;-71
2023/05/06 10:48:55;;;;;;;30.85;22.95;;;;;;;;;;4972879;28;20105;-72
2023/05/06 10:51:22;;;;;;;43.33;23.17;;;;;;;;;;4972249;28;20034;-71
2023/05/06 10:54:01;;;;;;;33.67;22.38;;;;;;;;;;4971971;28;20062;-72
2023/05/06 10:56:29;;;;;;;34.95;24.58;;;;;;;;;;4972227;28;20019;-71
2023/05/06 10:58:56;;;;;;;34.03;24.10;;;;;;;;;;4972111;28;20019;-71
2023/05/06 11:01:26;;;;;;;35.92;23.95;;;;;;;;;;4971873;28;20034;-71
2023/05/06 11:03:52;;;;;;;48.38;27.65;;;;;;;;;;4971851;28;20153;-70
2023/05/06 11:06:40;;;;;;;38.78;25.63;;;;;;;;;;4971551;28;20019;-71
2023/05/06 11:09:15;;;;;;;34.67;23.70;;;;;;;;;;4972423;28;20069;-71
2023/05/06 11:11:47;;;;;;;54.15;36.55;;;;;;;;;;4972733;28;20224;-71
2023/05/06 11:14:14;;;;;;;64.25;39.83;;;;;;;;;;4972849;28;20076;-71
2023/05/06 11:16:50;;;;;;;39.05;27.05;;;;;;;;;;4972832;28;20046;-71
2023/05/06 11:19:31;;;;;;;37.85;26.77;;;;;;;;;;4972661;28;20023;-69
2023/05/06 11:21:59;;;;;;;40.42;26.23;;;;;;;;;;4973074;28;20419;-72
2023/05/06 11:24:27;;;;;;;40.80;27.73;;;;;;;;;;4973001;28;20022;-71
2023/05/06 11:26:54;;;;;;;54.10;31.58;;;;;;;;;;4972792;28;20033;-70
2023/05/06 11:29:21;;;;;;;47.55;34.42;;;;;;;;;;4973111;28;20061;-68
2023/05/06 11:31:48;;;;;;;51.30;33.90;;;;;;;;;;4973370;28;20038;-69
2023/05/06 11:34:26;;;;;;;46.85;32.08;;;;;;;;;;4973271;28;20039;-69
2023/05/06 11:36:56;;;;;;;46.90;32.80;;;;;;;;;;5096712;22;20067;-69
2023/05/06 11:39:23;;;;;;;41.78;29.05;;;;;;;;;;5095295;28;20022;-68
2023/05/06 11:41:50;;;;;;;41.92;30.65;;;;;;;;;;5095000;28;20058;-69
2023/05/06 11:44:26;;;;;;;49.10;33.22;;;;;;;;;;5094726;28;20016;-69
2023/05/06 11:46:56;;;;;;;49.92;33.08;;;;;;;;;;5094847;28;20035;-70
2023/05/06 11:49:22;;;;;;;64.30;38.40;;;;;;;;;;5094907;28;20023;-70
2023/05/06 11:51:49;;;;;;;81.68;45.75;;;;;;;;;;5094740;28;20492;-70
2023/05/06 11:54:19;;;;;;;121.43;70.53;;;;;;;;;;5094705;28;20365;-70
2023/05/06 11:56:46;;;;;;;97.47;62.08;;;;;;;;;;5094757;28;20020;-70
2023/05/06 11:59:13;;;;;;;83.00;50.42;;;;;;;;;;5094521;28;20020;-70
2023/05/06 12:01:41;;;;;;;83.78;47.38;;;;;;;;;;5094688;28;20035;-70
2023/05/06 12:04:08;;;;;;;69.85;43.10;;;;;;;;;;5094634;28;20032;-69
2023/05/06 12:06:35;;;;;;;71.25;43.90;;;;;;;;;;5094448;28;20031;-70
2023/05/06 12:09:04;;;;;;;67.20;42.67;;;;;;;;;;5094498;28;20415;-70
2023/05/06 12:11:30;;;;;;;73.15;46.05;;;;;;;;;;5094609;28;20028;-71
2023/05/06 12:13:57;;;;;;;63.80;43.13;;;;;;;;;;5094171;28;20469;-71
2023/05/06 12:16:24;;;;;;;77.60;45.88;;;;;;;;;;5094526;28;20020;-70
2023/05/06 12:18:52;;;;;;;69.68;41.40;;;;;;;;;;5093796;28;20025;-73
2023/05/06 12:21:21;;;;;;;60.38;39.33;;;;;;;;;;5093862;28;20020;-68
2023/05/06 12:23:51;;;;;;;62.38;40.33;;;;;;;;;;5094058;28;20461;-69
2023/05/06 12:26:18;;;;;;;57.95;36.03;;;;;;;;;;5093871;28;20028;-70
2023/05/06 12:28:45;;;;;;;51.13;36.20;;;;;;;;;;5094296;28;20135;-70
2023/05/06 12:31:23;;;;;;;47.47;32.22;;;;;;;;;;5094093;28;20028;-70
2023/05/06 12:33:50;;;;;;;46.33;31.58;;;;;;;;;;5094313;28;20442;-70
2023/05/06 12:36:18;;;;;;;47.45;32.17;;;;;;;;;;5094344;28;20036;-70
2023/05/06 12:38:54;;;;;;;42.08;29.30;;;;;;;;;;5094426;28;20095;-70
2023/05/06 12:41:21;;;;;;;52.00;31.95;;;;;;;;;;5094400;28;20024;-70
2023/05/06 12:43:48;;;;;;;65.30;42.65;;;;;;;;;;5094245;28;20051;-70
2023/05/06 12:46:15;;;;;;;73.75;45.25;;;;;;;;;;5094267;28;20028;-70
2023/05/06 12:48:55;;;;;;;61.78;41.33;;;;;;;;;;5094047;28;20028;-71
2023/05/06 12:51:22;;;;;;;69.35;39.92;;;;;;;;;;5094264;28;20085;-69
2023/05/06 12:53:48;;;;;;;50.90;36.25;;;;;;;;;;5093993;28;20027;-70
2023/05/06 12:56:15;;;;;;;56.17;34.05;;;;;;;;;;5094170;28;20012;-69
2023/05/06 12:58:42;;;;;;;49.28;33.00;;;;;;;;;;5094020;28;20031;-70
2023/05/06 13:01:08;;;;;;;47.55;29.05;;;;;;;;;;5093842;28;20025;-70
2023/05/06 13:03:39;;;;;;;51.85;31.33;;;;;;;;;;5094033;28;20024;-70
2023/05/06 13:06:06;;;;;;;50.97;34.00;;;;;;;;;;5093995;28;20032;-70
2023/05/06 13:08:32;;;;;;;52.72;34.15;;;;;;;;;;5093943;28;20021;-70
2023/05/06 13:11:01;;;;;;;64.13;38.25;;;;;;;;;;5093948;28;20093;-70
2023/05/06 13:13:27;;;;;;;64.30;37.30;;;;;;;;;;5093084;28;20031;-70
2023/05/06 13:15:54;;;;;;;58.05;33.95;;;;;;;;;;5093341;28;20277;-70
2023/05/06 13:18:21;;;;;;;58.65;34.10;;;;;;;;;;5094027;28;20024;-70
2023/05/06 13:20:47;;;;;;;49.92;31.95;;;;;;;;;;5093788;28;20077;-70
2023/05/06 13:23:14;;;;;;;44.22;30.33;;;;;;;;;;5093772;28;20442;-70
2023/05/06 13:25:41;;;;;;;50.08;29.90;;;;;;;;;;5093923;28;20020;-70
2023/05/06 13:28:07;;;;;;;44.05;30.83;;;;;;;;;;5093860;28;20028;-70
2023/05/06 13:30:34;;;;;;;50.42;32.78;;;;;;;;;;5096830;28;20385;-70
2023/05/06 13:33:00;;;;;;;52.70;34.53;;;;;;;;;;5097520;28;20107;-70
2023/05/06 13:35:27;;;;;;;52.63;32.90;;;;;;;;;;5097294;28;20039;-71
2023/05/06 13:37:54;;;;;;;52.22;32.17;;;;;;;;;;5097219;28;20022;-72
2023/05/06 13:40:20;;;;;;;44.25;30.13;;;;;;;;;;5097286;28;20016;-74
2023/05/06 13:42:47;;;;;;;37.53;27.63;;;;;;;;;;5097174;28;20384;-71
2023/05/06 13:45:14;;;;;;;37.15;25.42;;;;;;;;;;5097210;28;20027;-70
2023/05/06 13:47:41;;;;;;;37.15;25.95;;;;;;;;;;5097489;28;20016;-70
2023/05/06 13:50:08;;;;;;;38.30;24.88;;;;;;;;;;5097118;28;20027;-70
2023/05/06 13:52:35;;;;;;;33.75;26.13;;;;;;;;;;5097097;28;20020;-70
2023/05/06 13:55:01;;;;;;;39.15;27.08;;;;;;;;;;5097124;28;20020;-71
2023/05/06 13:57:28;;;;;;;34.75;26.80;;;;;;;;;;5096984;28;20047;-71
2023/05/06 13:59:55;;;;;;;43.05;28.40;;;;;;;;;;5096899;28;20039;-71
2023/05/06 14:02:21;;;;;;;39.58;28.95;;;;;;;;;;5096784;28;20031;-71
2023/05/06 14:04:48;;;;;;;36.05;27.75;;;;;;;;;;5097004;28;20024;-70
2023/05/06 14:07:15;;;;;;;42.30;28.70;;;;;;;;;;5096796;28;20048;-70
2023/05/06 14:09:41;;;;;;;36.45;27.33;;;;;;;;;;5096593;28;20027;-70
2023/05/06 14:12:08;;;;;;;38.67;26.88;;;;;;;;;;5096897;28;20031;-71
2023/05/06 14:14:34;;;;;;;31.63;23.08;;;;;;;;;;5096981;28;20024;-70
2023/05/06 14:17:01;;;;;;;31.52;24.02;;;;;;;;;;5096441;28;20020;-71
2023/05/06 14:19:28;;;;;;;32.13;24.58;;;;;;;;;;5096718;28;20029;-71